createdAt,value
2019-03-19T00:01:49.032Z,92.30
2019-03-19T00:06:54.525Z,92.30
2019-03-19T00:11:59.982Z,92.50
2019-03-19T00:17:05.321Z,92.40
2019-03-19T00:22:10.838Z,92.40
2019-03-19T00:27:16.370Z,92.80
2019-03-19T00:32:21.623Z,93.30
2019-03-19T00:37:27.073Z,93.10
2019-03-19T00:42:32.529Z,93.30
2019-03-19T00:47:37.907Z,93.30
2019-03-19T00:52:43.480Z,93.10
2019-03-19T00:57:49.039Z,92.90
2019-03-19T01:02:54.537Z,93.30
2019-03-19T01:08:00.053Z,93.50
2019-03-19T01:13:06.140Z,93.60
2019-03-19T01:18:11.673Z,93.50
2019-03-19T01:23:16.961Z,93.60
2019-03-19T01:28:22.506Z,93.80
2019-03-19T01:33:28.085Z,93.90
2019-03-19T01:38:33.676Z,94.10
2019-03-19T01:43:39.217Z,94.00
2019-03-19T01:48:44.679Z,94.40
2019-03-19T01:53:51.481Z,94.30
2019-03-19T01:58:56.929Z,94.20
2019-03-19T02:04:02.549Z,94.20
2019-03-19T02:09:09.666Z,94.20
2019-03-19T02:14:15.172Z,94.40
2019-03-19T02:19:20.774Z,94.50
2019-03-19T02:24:26.212Z,94.50
2019-03-19T02:29:31.776Z,94.50
2019-03-19T02:34:37.199Z,94.60
2019-03-19T02:39:42.786Z,94.70
2019-03-19T02:44:48.229Z,94.70
2019-03-19T02:49:53.736Z,95.00
2019-03-19T02:54:59.497Z,95.20
2019-03-19T03:00:05.538Z,95.10
2019-03-19T03:05:12.056Z,95.00
2019-03-19T03:10:17.486Z,95.10
2019-03-19T03:15:23.147Z,95.10
2019-03-19T03:20:28.607Z,95.20
2019-03-19T03:25:33.979Z,95.30
2019-03-19T03:30:39.649Z,95.20
2019-03-19T03:35:45.114Z,95.10
2019-03-19T03:40:50.510Z,95.30
2019-03-19T03:45:56.241Z,95.30
2019-03-19T03:51:01.587Z,95.40
2019-03-19T03:56:07.172Z,95.40
2019-03-19T04:01:12.614Z,95.50
2019-03-19T04:06:18.078Z,95.60
2019-03-19T04:11:23.753Z,95.70
2019-03-19T04:16:29.414Z,95.80
2019-03-19T04:21:35.089Z,95.80
2019-03-19T04:26:40.650Z,95.80
2019-03-19T04:31:46.215Z,95.70
2019-03-19T04:36:51.602Z,95.70
2019-03-19T04:41:57.034Z,95.80
2019-03-19T04:47:02.705Z,95.90
2019-03-19T04:52:08.426Z,96.10
2019-03-19T04:57:14.030Z,96.10
2019-03-19T05:02:19.703Z,96.10
2019-03-19T05:07:25.399Z,96.00
2019-03-19T05:12:30.827Z,96.00
2019-03-19T05:17:36.507Z,96.00
2019-03-19T05:22:41.994Z,96.10
2019-03-19T05:27:47.650Z,96.20
2019-03-19T05:32:53.202Z,96.20
2019-03-19T05:37:58.726Z,96.30
2019-03-19T05:43:04.223Z,96.40
2019-03-19T05:48:09.704Z,96.40
2019-03-19T05:53:15.327Z,96.90
2019-03-19T05:58:20.993Z,97.10
2019-03-19T06:03:26.594Z,97.70
2019-03-19T06:08:32.150Z,97.80
2019-03-19T06:13:37.604Z,98.00
2019-03-19T06:18:43.215Z,98.10
2019-03-19T06:23:48.791Z,98.00
2019-03-19T06:28:54.415Z,98.40
2019-03-19T06:33:59.853Z,98.10
2019-03-19T06:39:07.672Z,98.30
2019-03-19T06:44:13.357Z,98.40
2019-03-19T06:49:18.907Z,98.80
2019-03-19T06:54:24.387Z,98.50
2019-03-19T06:59:30.077Z,98.70
2019-03-19T07:04:35.705Z,98.80
2019-03-19T07:09:41.295Z,98.90
2019-03-19T07:14:46.863Z,99.20
2019-03-19T07:19:52.423Z,99.90
2019-03-19T07:24:58.114Z,99.90
2019-03-19T07:30:03.474Z,99.90
2019-03-19T07:35:09.205Z,99.90
2019-03-19T07:40:14.790Z,99.90
2019-03-19T07:45:20.229Z,99.90
2019-03-19T07:50:25.887Z,99.90
2019-03-19T07:55:31.655Z,99.90
2019-03-19T08:00:37.155Z,99.90
2019-03-19T08:05:43.170Z,99.90
2019-03-19T08:10:48.707Z,99.90
2019-03-19T08:15:54.042Z,99.60
2019-03-19T08:20:59.518Z,99.70
2019-03-19T08:26:05.017Z,99.50
2019-03-19T08:31:10.509Z,99.50
2019-03-19T08:36:15.901Z,99.40
2019-03-19T08:41:21.226Z,99.20
2019-03-19T08:46:26.687Z,99.10
2019-03-19T08:51:32.213Z,99.00
2019-03-19T08:56:37.444Z,98.60
2019-03-19T09:01:44.082Z,97.90
2019-03-19T09:06:49.777Z,97.70
2019-03-19T09:11:55.181Z,97.70
2019-03-19T09:17:00.807Z,97.90
2019-03-19T09:22:06.472Z,97.70
2019-03-19T09:27:12.050Z,97.60
2019-03-19T09:32:17.604Z,98.00
2019-03-19T09:37:23.173Z,97.90
2019-03-19T09:42:28.834Z,98.30
2019-03-19T09:47:34.096Z,98.30
2019-03-19T09:52:39.639Z,98.30
2019-03-19T09:57:45.007Z,98.60
2019-03-19T10:02:51.819Z,98.70
2019-03-19T10:07:57.179Z,98.60
2019-03-19T10:13:02.529Z,98.50
2019-03-19T10:18:07.974Z,98.90
2019-03-19T10:23:13.563Z,98.90
2019-03-19T10:28:19.118Z,98.70
2019-03-19T10:33:24.483Z,98.90
2019-03-19T10:38:29.923Z,99.50
2019-03-19T10:43:35.292Z,99.30
2019-03-19T10:48:40.584Z,98.30
2019-03-19T10:53:45.907Z,98.30
2019-03-19T10:58:51.514Z,98.10
2019-03-19T11:03:57.055Z,98.00
2019-03-19T11:09:02.707Z,97.70
2019-03-19T11:14:08.226Z,97.40
2019-03-19T11:19:13.881Z,97.00
2019-03-19T11:24:19.395Z,97.00
2019-03-19T11:29:24.999Z,96.90
2019-03-19T11:34:30.561Z,97.00
2019-03-19T11:39:35.900Z,96.90
2019-03-19T11:44:42.963Z,96.80
2019-03-19T11:49:48.267Z,96.80
2019-03-19T11:54:53.568Z,96.30
2019-03-19T12:00:10.452Z,95.70
2019-03-19T12:05:09.635Z,95.30
2019-03-19T12:10:15.257Z,94.40
2019-03-19T12:15:20.603Z,93.80
2019-03-19T12:20:26.149Z,93.20
2019-03-19T12:25:31.863Z,92.90
2019-03-19T12:30:37.576Z,92.70
2019-03-19T12:35:43.079Z,92.40
2019-03-19T12:40:48.816Z,92.40
2019-03-19T12:45:54.386Z,92.10
2019-03-19T12:50:59.942Z,92.30
2019-03-19T12:56:05.802Z,92.50
2019-03-19T13:01:11.525Z,92.40
2019-03-19T13:06:18.507Z,91.90
2019-03-19T13:11:24.085Z,92.10
2019-03-19T13:16:29.645Z,92.10
2019-03-19T13:21:35.033Z,92.40
2019-03-19T13:26:40.844Z,92.20
2019-03-19T13:31:46.340Z,92.20
2019-03-19T13:36:51.802Z,92.20
2019-03-19T13:41:57.226Z,92.10
2019-03-19T13:47:02.748Z,91.80
2019-03-19T13:52:08.353Z,91.80
2019-03-19T13:57:14.020Z,91.60
2019-03-19T14:02:19.560Z,91.40
2019-03-19T14:07:24.947Z,91.40
2019-03-19T14:12:30.509Z,91.10
2019-03-19T14:17:36.085Z,91.10
2019-03-19T14:22:41.671Z,91.10
2019-03-19T14:27:47.184Z,91.20
2019-03-19T14:32:52.779Z,90.90
2019-03-19T14:37:58.355Z,90.90
2019-03-19T14:43:03.826Z,90.60
2019-03-19T14:48:09.266Z,90.70
2019-03-19T14:53:14.858Z,90.60
2019-03-19T14:58:20.370Z,90.60
2019-03-19T15:03:25.950Z,90.60
2019-03-19T15:08:31.629Z,90.50
2019-03-19T15:13:37.060Z,90.50
2019-03-19T15:18:42.523Z,90.40
2019-03-19T15:23:48.218Z,90.30
2019-03-19T15:28:53.610Z,90.60
2019-03-19T15:33:59.254Z,90.90
2019-03-19T15:39:06.403Z,91.20
2019-03-19T15:44:11.796Z,91.30
2019-03-19T15:49:17.307Z,91.50
2019-03-19T15:54:22.930Z,91.60
2019-03-19T15:59:28.586Z,91.40
2019-03-19T16:04:34.279Z,91.40
2019-03-19T16:09:40.482Z,91.40
2019-03-19T16:14:46.021Z,91.40
2019-03-19T16:19:51.508Z,91.40
2019-03-19T16:24:56.995Z,91.50
2019-03-19T16:30:02.515Z,91.80
2019-03-19T16:35:08.377Z,91.90
2019-03-19T16:40:16.348Z,92.10
2019-03-19T16:45:21.953Z,92.50
2019-03-19T16:50:27.683Z,92.70
2019-03-19T16:55:33.427Z,93.20
2019-03-19T17:00:39.106Z,93.30
2019-03-19T17:05:44.837Z,93.50
2019-03-19T17:10:50.515Z,93.50
2019-03-19T17:15:56.192Z,93.50
2019-03-19T17:21:01.534Z,93.50
2019-03-19T17:26:07.292Z,93.50
2019-03-19T17:31:12.754Z,93.70
2019-03-19T17:36:18.011Z,93.60
2019-03-19T17:41:24.027Z,93.70
2019-03-19T17:46:29.673Z,94.00
2019-03-19T17:51:35.182Z,94.50
2019-03-19T17:56:40.887Z,94.80
2019-03-19T18:01:46.626Z,95.30
2019-03-19T18:06:52.334Z,95.60
2019-03-19T18:11:58.211Z,95.50
2019-03-19T18:17:03.869Z,95.30
2019-03-19T18:22:09.539Z,95.30
2019-03-19T18:27:15.660Z,95.30
2019-03-19T18:32:21.378Z,95.40
2019-03-19T18:37:27.112Z,95.50
2019-03-19T18:42:32.893Z,95.70
2019-03-19T18:47:38.408Z,95.70
2019-03-19T18:52:44.135Z,95.70
2019-03-19T18:57:49.968Z,95.70
2019-03-19T19:02:55.513Z,95.60
2019-03-19T19:08:01.061Z,95.80
2019-03-19T19:13:06.813Z,95.80
2019-03-19T19:18:12.546Z,96.40
2019-03-19T19:23:18.164Z,96.30
2019-03-19T19:28:25.079Z,96.00
2019-03-19T19:33:34.207Z,96.20
2019-03-19T19:38:40.007Z,96.20
2019-03-19T19:43:45.563Z,96.70
2019-03-19T19:48:51.179Z,96.80
2019-03-19T19:53:56.773Z,96.80
2019-03-19T19:59:02.467Z,97.40
2019-03-19T20:04:08.341Z,96.90
2019-03-19T20:09:14.213Z,96.90
2019-03-19T20:14:19.753Z,97.00
2019-03-19T20:19:25.210Z,96.90
2019-03-19T20:24:30.955Z,96.80
2019-03-19T20:29:37.221Z,97.10
2019-03-19T20:34:42.847Z,97.20
2019-03-19T20:39:48.564Z,97.10
2019-03-19T20:44:54.276Z,97.10
2019-03-19T20:49:59.914Z,97.20
2019-03-19T20:55:05.748Z,97.30
2019-03-19T21:00:13.772Z,97.30
2019-03-19T21:05:19.477Z,97.30
2019-03-19T21:10:25.042Z,97.20
2019-03-19T21:15:30.826Z,97.10
2019-03-19T21:20:36.276Z,97.10
2019-03-19T21:25:41.844Z,97.70
2019-03-19T21:30:47.610Z,97.80
2019-03-19T21:35:52.963Z,97.70
2019-03-19T21:40:58.638Z,97.70
2019-03-19T21:46:04.188Z,97.60
2019-03-19T21:51:09.898Z,97.50
2019-03-19T21:56:15.280Z,97.50
2019-03-19T22:01:20.801Z,97.50
2019-03-19T22:06:26.469Z,97.60
2019-03-19T22:11:32.130Z,97.60
2019-03-19T22:16:37.797Z,97.50
2019-03-19T22:21:43.365Z,97.70
2019-03-19T22:26:48.933Z,97.80
2019-03-19T22:31:54.605Z,98.10
2019-03-19T22:37:00.264Z,98.00
2019-03-19T22:42:05.834Z,97.90
2019-03-19T22:47:11.414Z,97.90
2019-03-19T22:52:16.954Z,97.90
2019-03-19T22:57:22.613Z,98.00
2019-03-19T23:02:28.441Z,98.00
2019-03-19T23:07:33.962Z,97.90
2019-03-19T23:12:39.614Z,97.80
2019-03-19T23:17:45.410Z,97.90
2019-03-19T23:22:50.842Z,97.90
2019-03-19T23:27:56.233Z,97.80
2019-03-19T23:33:02.224Z,97.70
2019-03-19T23:38:07.869Z,97.80
2019-03-19T23:43:13.324Z,97.70
2019-03-19T23:48:18.903Z,97.60
2019-03-19T23:53:24.315Z,97.70
2019-03-19T23:58:30.058Z,97.70
